Time;durP1;ratioP1;P1;durP2;ratioP2;P2;SDS_P1;SDS_P2;PMS_P1;PMS_P2;Temp;Humidity;BMP_temperature;BMP_pressure;BME280_temperature;BME280_humidity;BME280_pressure;Samples;Min_cycle;Max_cycle;Signal;HPM_P1;HPM_P2
2021/03/13 00:00:56;;;;;;;12.88;8.20;;;;;;;3.52;68.00;100013.37;1731712;82;21620;-58
2021/03/13 00:03:23;;;;;;;14.33;8.55;;;;;;;3.53;68.00;100015.51;1733529;81;21114;-59
2021/03/13 00:05:51;;;;;;;15.53;8.70;;;;;;;3.57;67.96;100013.59;1719998;81;21221;-59
2021/03/13 00:08:18;;;;;;;13.15;8.55;;;;;;;3.58;67.83;100014.81;1709879;82;21211;-59
2021/03/13 00:10:46;;;;;;;16.82;10.32;;;;;;;3.58;67.72;100009.61;1728826;81;21175;-59
2021/03/13 00:13:13;;;;;;;15.48;8.60;;;;;;;3.57;67.69;100017.03;1729406;82;21122;-59
2021/03/13 00:15:42;;;;;;;14.80;8.05;;;;;;;3.56;67.59;100019.72;1732351;81;21187;-59
2021/03/13 00:18:10;;;;;;;17.15;9.08;;;;;;;3.57;67.52;100020.10;1726406;81;21429;-59
2021/03/13 00:20:41;;;;;;;14.87;9.35;;;;;;;3.68;67.35;100015.97;1733465;81;21219;-59
2021/03/13 00:23:09;;;;;;;15.70;8.93;;;;;;;3.76;67.26;100006.87;1722278;82;21627;-59
2021/03/13 00:25:38;;;;;;;13.93;8.50;;;;;;;3.82;67.26;100011.73;1730169;81;21227;-59
2021/03/13 00:28:06;;;;;;;18.10;9.33;;;;;;;3.83;67.29;100007.73;1732358;82;21111;-59
2021/03/13 00:30:39;;;;;;;13.90;8.65;;;;;;;3.80;67.32;100006.61;1732454;81;21473;-59
2021/03/13 00:33:15;;;;;;;14.98;8.90;;;;;;;3.76;67.32;100005.56;1725467;81;21202;-59
2021/03/13 00:35:44;;;;;;;14.35;8.68;;;;;;;3.70;67.38;100005.47;1726964;81;21120;-59
2021/03/13 00:38:12;;;;;;;16.12;9.05;;;;;;;3.63;67.49;100004.13;1730555;81;21215;-59
2021/03/13 00:40:41;;;;;;;14.45;9.30;;;;;;;3.57;67.62;100013.13;1724155;82;21190;-59
2021/03/13 00:43:10;;;;;;;17.17;9.68;;;;;;;3.50;67.79;100010.03;1727762;81;21199;-59
2021/03/13 00:45:40;;;;;;;15.55;9.23;;;;;;;3.47;67.95;100013.27;1730204;81;21227;-59
2021/03/13 00:48:08;;;;;;;16.02;8.70;;;;;;;3.49;67.96;100014.02;1727915;82;21204;-59
2021/03/13 00:50:39;;;;;;;13.53;8.83;;;;;;;3.61;67.71;100019.81;1727865;81;21226;-59
2021/03/13 00:53:07;;;;;;;14.98;9.30;;;;;;;3.71;67.51;100012.33;1721464;81;21168;-59
2021/03/13 00:55:36;;;;;;;14.95;9.23;;;;;;;3.76;67.48;100006.87;1724909;81;21256;-59
2021/03/13 00:58:05;;;;;;;18.10;8.68;;;;;;;3.79;67.42;99997.11;1698276;82;21594;-59
2021/03/13 01:00:35;;;;;;;16.52;9.68;;;;;;;3.82;67.33;100001.31;1724597;81;21207;-59
2021/03/13 01:03:05;;;;;;;13.30;9.30;;;;;;;3.82;67.25;100003.45;1741283;80;21163;-57
2021/03/13 01:05:33;;;;;;;15.85;9.63;;;;;;;3.84;67.25;100007.27;1731617;81;21552;-68
2021/03/13 01:08:02;;;;;;;16.97;9.95;;;;;;;3.85;67.25;100004.58;1716951;81;21195;-69
2021/03/13 01:10:35;;;;;;;12.43;9.15;;;;;;;3.83;67.05;100010.34;1747765;80;21212;-68
2021/03/13 01:13:04;;;;;;;14.93;9.43;;;;;;;3.81;67.17;100015.25;1716630;83;21129;-67
2021/03/13 01:15:33;;;;;;;15.28;9.43;;;;;;;3.77;67.30;100014.59;1729522;82;21175;-66
2021/03/13 01:18:02;;;;;;;14.73;9.73;;;;;;;3.74;67.35;100016.06;1731327;81;21602;-65
2021/03/13 01:20:30;;;;;;;13.65;9.10;;;;;;;3.72;67.40;100012.24;1729754;81;21206;-65
2021/03/13 01:22:58;;;;;;;14.20;8.83;;;;;;;3.81;67.28;100012.17;1749353;81;21187;-66
2021/03/13 01:25:26;;;;;;;13.22;9.03;;;;;;;3.85;67.26;100015.43;1721906;81;21190;-66
2021/03/13 01:27:54;;;;;;;14.90;8.33;;;;;;;3.86;67.35;100018.42;1706352;83;21188;-65
2021/03/13 01:30:22;;;;;;;17.35;10.18;;;;;;;3.78;67.50;100029.27;1738338;81;21159;-65
2021/03/13 01:32:52;;;;;;;14.25;9.10;;;;;;;3.71;67.73;100038.35;1743984;81;21268;-65
2021/03/13 01:35:21;;;;;;;18.02;9.58;;;;;;;3.63;67.95;100048.36;1702989;83;21170;-62
2021/03/13 01:37:48;;;;;;;14.73;8.50;;;;;;;3.54;68.20;100054.92;1743737;80;21135;-65
2021/03/13 01:40:18;;;;;;;14.03;8.45;;;;;;;3.45;68.46;100056.28;1727218;81;21159;-66
2021/03/13 01:42:47;;;;;;;16.27;9.43;;;;;;;3.35;68.73;100061.14;1715512;82;21191;-66
2021/03/13 01:45:23;;;;;;;15.50;10.08;;;;;;;3.30;68.97;100059.73;1678468;83;21227;-64
2021/03/13 01:47:54;;;;;;;14.58;8.60;;;;;;;3.34;69.07;100065.13;1688809;83;21185;-63
2021/03/13 01:50:23;;;;;;;16.30;10.63;;;;;;;3.48;68.90;100070.42;1681292;83;21745;-65
2021/03/13 01:52:52;;;;;;;18.10;9.03;;;;;;;3.60;68.80;100066.73;1713760;82;21195;-64
2021/03/13 01:55:22;;;;;;;14.53;9.33;;;;;;;3.68;68.68;100071.91;1689039;82;21131;-63
2021/03/13 01:57:51;;;;;;;14.10;8.03;;;;;;;3.71;68.74;100072.18;1689461;83;22003;-65
2021/03/13 02:00:22;;;;;;;17.10;10.48;;;;;;;3.72;68.78;100077.78;1704807;83;21645;-64
2021/03/13 02:02:51;;;;;;;17.55;10.63;;;;;;;3.72;68.74;100073.40;1718761;82;21151;-66
2021/03/13 02:05:31;;;;;;;16.00;9.83;;;;;;;3.72;68.74;100079.91;1720870;83;21195;-66
2021/03/13 02:08:20;;;;;;;15.70;10.38;;;;;;;3.74;68.70;100089.41;1728066;81;21163;-65
2021/03/13 02:11:10;;;;;;;17.67;11.12;;;;;;;3.75;68.55;100088.45;1727914;82;21233;-65
2021/03/13 02:14:19;;;;;;;18.40;10.32;;;;;;;3.72;68.62;100096.82;1716088;80;21618;-67
2021/03/13 02:20:17;;;;;;;16.37;9.40;;;;;;;3.86;68.40;100090.00;1797987;77;22890;-63
2021/03/13 02:22:49;;;;;;;13.90;9.73;;;;;;;3.97;68.03;100093.28;1771895;78;21140;-63
2021/03/13 02:26:01;;;;;;;17.17;9.80;;;;;;;4.07;67.74;100094.45;1774868;80;23326;-64
2021/03/13 02:28:51;;;;;;;15.23;8.95;;;;;;;4.14;67.88;100093.16;1714414;82;21180;-64
2021/03/13 02:31:21;;;;;;;18.90;9.48;;;;;;;4.22;67.55;100093.56;1697146;83;21205;-64
2021/03/13 02:33:48;;;;;;;16.05;11.00;;;;;;;4.20;67.32;100110.19;1657646;83;21496;-62
2021/03/13 02:36:39;;;;;;;15.70;9.05;;;;;;;4.19;67.58;100097.64;1829315;76;22744;-64
2021/03/13 02:39:09;;;;;;;15.43;9.65;;;;;;;4.14;67.59;100104.88;1775852;79;21116;-64
2021/03/13 02:41:49;;;;;;;21.48;11.53;;;;;;;4.12;67.76;100103.28;1782902;78;21191;-65
2021/03/13 02:44:17;;;;;;;17.80;10.08;;;;;;;4.07;67.83;100107.00;1801818;79;21014;-69
2021/03/13 02:46:48;;;;;;;15.00;9.08;;;;;;;4.06;67.90;100107.09;1797439;79;21185;-63
2021/03/13 02:49:17;;;;;;;18.85;10.15;;;;;;;4.01;67.77;100100.83;1787831;79;21128;-64
2021/03/13 02:51:46;;;;;;;18.02;10.23;;;;;;;4.03;67.65;100100.28;1755712;80;21175;-64
2021/03/13 02:54:14;;;;;;;14.78;9.65;;;;;;;4.12;67.60;100088.96;1770379;79;22408;-66
2021/03/13 02:56:42;;;;;;;13.95;10.23;;;;;;;4.17;67.72;100098.20;1751663;80;21215;-70
2021/03/13 02:59:12;;;;;;;16.27;8.75;;;;;;;4.22;67.72;100094.87;1776991;78;21163;-65
2021/03/13 03:01:41;;;;;;;15.30;10.32;;;;;;;4.24;67.74;100098.21;1769806;80;21156;-66
2021/03/13 03:04:09;;;;;;;13.75;9.75;;;;;;;4.26;67.58;100105.47;1741641;80;21167;-64
2021/03/13 03:06:42;;;;;;;14.55;8.85;;;;;;;4.27;67.45;100103.72;1777572;79;22699;-64
2021/03/13 03:09:09;;;;;;;16.52;10.18;;;;;;;4.26;67.11;100110.67;1755147;80;21136;-66
2021/03/13 03:11:41;;;;;;;16.20;10.70;;;;;;;4.18;66.81;100115.95;1771538;80;21151;-65
2021/03/13 03:14:12;;;;;;;15.75;9.10;;;;;;;4.10;66.69;100120.30;1713915;78;21623;-64
2021/03/13 03:16:40;;;;;;;13.55;9.20;;;;;;;4.02;66.71;100122.05;1774242;78;21139;-64
2021/03/13 03:19:09;;;;;;;14.83;9.80;;;;;;;3.96;66.68;100118.95;1778229;78;21200;-63
2021/03/13 03:21:39;;;;;;;14.25;9.05;;;;;;;3.87;66.75;100125.05;1774675;78;21151;-64
2021/03/13 03:24:10;;;;;;;17.32;10.72;;;;;;;3.79;66.86;100124.64;1747094;80;21183;-64
2021/03/13 03:26:38;;;;;;;15.98;10.40;;;;;;;3.81;67.04;100121.48;1754897;80;21171;-64
2021/03/13 03:29:08;;;;;;;15.50;9.73;;;;;;;3.92;67.48;100120.90;1779659;78;21172;-65
2021/03/13 03:31:36;;;;;;;16.97;10.43;;;;;;;4.00;67.59;100111.33;1780641;78;21175;-65
2021/03/13 03:34:05;;;;;;;19.85;10.93;;;;;;;4.10;67.60;100116.39;1776949;79;21139;-64
2021/03/13 03:36:35;;;;;;;16.55;10.98;;;;;;;4.21;67.50;100112.71;1766231;78;21206;-70
2021/03/13 03:39:03;;;;;;;16.25;10.50;;;;;;;4.27;67.30;100108.93;1795708;78;21131;-65
2021/03/13 03:41:33;;;;;;;15.68;9.38;;;;;;;4.23;67.25;100111.32;1795360;78;21214;-65
2021/03/13 03:44:12;;;;;;;16.60;10.05;;;;;;;4.18;67.35;100123.77;1797894;78;21443;-68
2021/03/13 03:46:41;;;;;;;18.92;11.10;;;;;;;4.13;67.32;100127.11;1793677;78;21159;-67
2021/03/13 03:49:10;;;;;;;16.93;10.95;;;;;;;4.03;67.23;100129.39;1768439;78;21489;-68
2021/03/13 03:51:39;;;;;;;19.55;11.75;;;;;;;3.91;67.39;100117.91;1770147;79;21167;-64
2021/03/13 03:54:11;;;;;;;15.95;10.90;;;;;;;3.80;67.46;100113.76;1765882;79;21154;-65
2021/03/13 03:56:40;;;;;;;19.75;10.90;;;;;;;3.69;67.53;100120.88;1774347;78;22502;-66
2021/03/13 03:59:17;;;;;;;18.98;11.88;;;;;;;3.58;67.46;100130.59;1765977;79;21162;-66
2021/03/13 04:01:50;;;;;;;15.58;11.43;;;;;;;3.50;67.96;100133.60;1781965;78;21115;-63
2021/03/13 04:04:20;;;;;;;20.32;11.30;;;;;;;3.52;68.01;100143.92;1767384;79;21170;-65
2021/03/13 04:06:50;;;;;;;16.25;10.65;;;;;;;3.51;67.90;100147.00;1787135;79;21151;-64
2021/03/13 04:09:20;;;;;;;16.10;10.05;;;;;;;3.47;68.33;100148.07;1794261;78;22208;-64
2021/03/13 04:11:48;;;;;;;15.98;9.75;;;;;;;3.41;68.75;100152.29;1787620;78;21142;-63
2021/03/13 04:14:15;;;;;;;19.25;10.35;;;;;;;3.38;69.31;100158.13;1790033;78;21618;-66
2021/03/13 04:16:43;;;;;;;17.07;11.03;;;;;;;3.37;69.70;100163.80;1785608;78;21195;-65
2021/03/13 04:19:11;;;;;;;17.05;10.50;;;;;;;3.40;69.89;100168.02;1782376;78;21143;-65
2021/03/13 04:21:40;;;;;;;18.00;11.12;;;;;;;3.42;70.11;100165.69;1784997;78;21174;-65
2021/03/13 04:24:10;;;;;;;16.02;10.13;;;;;;;3.42;70.21;100162.26;1750173;80;21167;-65
2021/03/13 04:26:37;;;;;;;17.80;10.98;;;;;;;3.42;70.47;100157.05;1751719;80;21145;-64
2021/03/13 04:29:04;;;;;;;18.87;10.78;;;;;;;3.47;70.54;100162.37;1728273;80;22302;-65
2021/03/13 04:31:33;;;;;;;17.60;10.72;;;;;;;3.59;70.66;100157.44;1770892;80;21587;-63
2021/03/13 04:34:02;;;;;;;15.05;9.15;;;;;;;3.65;70.61;100155.34;1769049;79;21318;-64
2021/03/13 04:36:32;;;;;;;17.67;9.90;;;;;;;3.69;70.73;100153.41;1749676;80;21241;-63
2021/03/13 04:39:02;;;;;;;14.98;9.45;;;;;;;3.68;70.98;100155.62;1739769;80;21151;-64
2021/03/13 04:41:30;;;;;;;14.28;10.30;;;;;;;3.65;71.18;100148.84;1715690;83;21794;-63
2021/03/13 04:43:57;;;;;;;17.85;9.68;;;;;;;3.62;71.33;100152.08;1711952;82;21475;-64
2021/03/13 04:46:24;;;;;;;16.85;9.30;;;;;;;3.58;71.71;100154.45;1682598;82;21266;-65
2021/03/13 04:48:52;;;;;;;15.40;9.40;;;;;;;3.49;71.85;100158.39;1703015;81;21226;-65
2021/03/13 04:51:20;;;;;;;13.98;9.35;;;;;;;3.52;71.80;100161.66;1701721;82;21625;-66
2021/03/13 04:53:48;;;;;;;13.98;9.28;;;;;;;3.67;71.58;100170.41;1732608;81;21170;-64
2021/03/13 04:56:15;;;;;;;21.50;9.08;;;;;;;3.73;71.55;100170.52;1724314;82;21214;-66
2021/03/13 04:58:43;;;;;;;13.83;8.60;;;;;;;3.74;71.53;100176.58;1731517;80;21639;-64
2021/03/13 05:01:12;;;;;;;15.45;8.20;;;;;;;3.68;71.68;100173.39;1727940;82;21195;-65
2021/03/13 05:03:41;;;;;;;14.80;9.15;;;;;;;3.66;71.77;100180.89;1686559;83;21233;-66
2021/03/13 05:06:10;;;;;;;17.98;9.68;;;;;;;3.65;71.86;100187.04;1688083;83;21670;-67
2021/03/13 05:08:38;;;;;;;17.50;9.68;;;;;;;3.62;71.92;100187.20;1734755;80;21162;-66
2021/03/13 05:11:05;;;;;;;15.50;8.40;;;;;;;3.63;71.92;100191.46;1740572;80;21212;-66
2021/03/13 05:13:34;;;;;;;14.23;8.40;;;;;;;3.62;71.92;100197.61;1739833;80;21551;-63
2021/03/13 05:16:03;;;;;;;15.68;8.63;;;;;;;3.64;71.88;100201.79;1720707;82;21665;-67
2021/03/13 05:18:31;;;;;;;14.38;8.33;;;;;;;3.76;71.69;100209.39;1714969;82;21210;-65
2021/03/13 05:20:58;;;;;;;15.43;8.43;;;;;;;3.86;71.48;100213.17;1710979;82;21654;-66
2021/03/13 05:23:25;;;;;;;16.87;8.78;;;;;;;3.93;71.38;100212.84;1711912;82;21768;-65
2021/03/13 05:25:53;;;;;;;14.13;8.20;;;;;;;3.92;71.41;100219.82;1731910;81;21209;-64
2021/03/13 05:28:22;;;;;;;13.03;8.48;;;;;;;3.92;71.48;100223.73;1737332;80;21182;-65
2021/03/13 05:30:49;;;;;;;16.15;9.18;;;;;;;3.93;71.49;100216.27;1703952;82;21521;-67
2021/03/13 05:33:17;;;;;;;14.93;9.38;;;;;;;3.98;71.50;100222.53;1708732;82;21714;-66
2021/03/13 05:35:45;;;;;;;15.90;10.25;;;;;;;4.04;71.39;100224.34;1719092;82;21846;-65
2021/03/13 05:38:12;;;;;;;17.15;8.78;;;;;;;4.08;71.21;100227.17;1730690;81;21187;-66
2021/03/13 05:40:39;;;;;;;25.15;9.95;;;;;;;4.12;71.06;100229.14;1743531;81;21208;-65
2021/03/13 05:43:12;;;;;;;16.77;8.90;;;;;;;4.21;70.94;100234.28;1717458;81;21211;-66
2021/03/13 05:45:40;;;;;;;13.58;7.87;;;;;;;4.35;70.51;100237.41;1731965;81;21243;-68
2021/03/13 05:48:09;;;;;;;13.78;8.10;;;;;;;4.43;70.32;100243.03;1728637;81;21743;-66
2021/03/13 05:50:37;;;;;;;14.58;7.87;;;;;;;4.45;70.19;100245.08;1731741;81;21297;-64
2021/03/13 05:53:04;;;;;;;17.02;10.10;;;;;;;4.41;70.28;100249.63;1730937;81;21244;-64
2021/03/13 05:55:32;;;;;;;17.35;9.50;;;;;;;4.41;70.43;100252.70;1708236;82;21151;-66
2021/03/13 05:57:59;;;;;;;20.48;9.08;;;;;;;4.44;70.37;100255.14;1726624;82;21215;-70
2021/03/13 06:00:28;;;;;;;18.90;8.95;;;;;;;4.44;70.36;100256.45;1726053;81;21227;-66
2021/03/13 06:02:57;;;;;;;17.45;8.90;;;;;;;4.48;70.22;100257.11;1701200;82;21445;-66
2021/03/13 06:05:26;;;;;;;16.55;9.85;;;;;;;4.49;70.28;100264.84;1731684;81;21632;-68
2021/03/13 06:07:55;;;;;;;17.30;10.05;;;;;;;4.54;70.15;100271.07;1716593;81;21476;-67
2021/03/13 06:10:22;;;;;;;14.53;8.90;;;;;;;4.65;69.87;100277.34;1721235;82;21146;-66
2021/03/13 06:12:50;;;;;;;12.90;8.40;;;;;;;4.85;69.35;100274.08;1721079;81;21449;-68
2021/03/13 06:15:20;;;;;;;11.15;6.90;;;;;;;4.97;69.07;100281.17;1718670;81;21207;-65
2021/03/13 06:17:55;;;;;;;14.50;7.87;;;;;;;5.09;69.01;100282.70;1697299;82;21215;-66
2021/03/13 06:20:34;;;;;;;13.20;8.70;;;;;;;5.19;68.79;100287.74;1718009;82;21131;-65
2021/03/13 06:23:10;;;;;;;14.93;7.25;;;;;;;5.25;68.41;100288.70;1725974;81;21203;-64
2021/03/13 06:25:37;;;;;;;13.43;8.15;;;;;;;5.26;68.23;100292.13;1696569;82;22456;-66
2021/03/13 06:28:18;;;;;;;14.23;8.53;;;;;;;5.27;68.15;100297.27;1695161;81;21218;-64
2021/03/13 06:30:50;;;;;;;13.58;8.83;;;;;;;5.30;68.02;100294.95;1728970;82;21139;-65
2021/03/13 06:33:21;;;;;;;16.60;8.63;;;;;;;5.30;68.03;100299.70;1725313;81;21125;-64
2021/03/13 06:35:49;;;;;;;14.20;9.15;;;;;;;5.31;68.03;100295.30;1724470;81;21174;-65
2021/03/13 06:38:20;;;;;;;13.55;7.35;;;;;;;5.35;68.01;100299.43;1690949;84;22265;-65
2021/03/13 06:40:50;;;;;;;13.38;8.38;;;;;;;5.46;67.72;100296.16;1727028;81;21183;-64
2021/03/13 06:43:28;;;;;;;14.60;7.53;;;;;;;5.61;67.34;100300.93;1737617;81;21159;-66
2021/03/13 06:46:08;;;;;;;11.40;7.75;;;;;;;5.73;67.01;100297.56;1722506;82;21203;-68
2021/03/13 06:48:49;;;;;;;15.70;7.95;;;;;;;5.81;66.71;100297.11;1700801;82;21198;-63
2021/03/13 06:51:38;;;;;;;13.90;7.67;;;;;;;5.84;66.78;100299.53;1692209;81;21253;-67
2021/03/13 06:54:17;;;;;;;12.18;7.10;;;;;;;5.86;66.70;100302.41;1703959;82;21230;-64
2021/03/13 06:56:57;;;;;;;12.07;7.95;;;;;;;5.85;66.54;100302.50;1714386;82;21180;-64
2021/03/13 07:02:05;;;;;;;14.35;8.73;;;;;;;5.87;66.37;100303.27;1720694;82;21179;-65
2021/03/13 07:04:42;;;;;;;15.63;7.80;;;;;;;5.90;66.36;100300.00;1730086;81;21203;-64
2021/03/13 07:07:12;;;;;;;13.53;7.45;;;;;;;5.97;66.48;100297.02;1721849;81;21158;-69
2021/03/13 07:09:49;;;;;;;15.75;7.83;;;;;;;6.08;65.83;100298.02;1695604;82;21226;-65
2021/03/13 07:12:34;;;;;;;13.88;7.30;;;;;;;6.22;66.05;100298.92;1723350;81;21206;-65
2021/03/13 07:15:23;;;;;;;11.63;6.55;;;;;;;6.22;66.05;100298.92;1720731;82;21163;-65
2021/03/13 07:17:59;;;;;;;14.45;7.22;;;;;;;6.42;65.39;100302.44;1681267;82;21206;-66
2021/03/13 07:20:29;;;;;;;11.85;6.42;;;;;;;6.65;65.19;100296.19;1717906;81;21258;-65
2021/03/13 07:23:00;;;;;;;16.27;8.33;;;;;;;6.82;64.84;100299.00;1723457;82;21183;-65
2021/03/13 07:25:28;;;;;;;11.88;7.62;;;;;;;6.92;64.52;100293.53;1693573;82;21203;-66
2021/03/13 07:27:57;;;;;;;12.18;7.53;;;;;;;7.02;64.32;100293.77;1721872;82;21210;-66
2021/03/13 07:30:26;;;;;;;13.75;6.92;;;;;;;7.06;64.06;100293.47;1726158;81;21217;-67
2021/03/13 07:33:02;;;;;;;14.58;7.95;;;;;;;7.14;63.69;100295.55;1697118;82;21258;-67
2021/03/13 07:35:39;;;;;;;;;;;;;;;7.16;63.54;100300.69;1717402;82;22327;-71
2021/03/13 07:38:09;;;;;;;13.90;7.08;;;;;;;7.17;63.68;100299.75;1767767;79;20289;-68
2021/03/13 07:40:46;;;;;;;10.53;6.20;;;;;;;7.13;63.50;100303.05;1770969;79;21111;-69
2021/03/13 07:43:16;;;;;;;10.28;5.85;;;;;;;7.15;63.39;100304.27;1768608;79;22120;-72
2021/03/13 07:45:47;;;;;;;10.13;5.35;;;;;;;7.15;62.41;100306.40;1774333;79;21192;-71
2021/03/13 07:48:14;;;;;;;15.60;7.40;;;;;;;7.15;62.41;100306.40;1771306;79;21234;-70
2021/03/13 07:50:48;;;;;;;12.33;7.70;;;;;;;7.08;62.55;100309.06;1779425;79;21217;-69
2021/03/13 07:53:16;;;;;;;11.65;7.00;;;;;;;7.01;62.62;100307.77;1763045;80;21175;-69
2021/03/13 07:55:52;;;;;;;11.70;7.30;;;;;;;6.95;62.62;100305.58;1742937;80;21375;-67
2021/03/13 07:58:21;;;;;;;11.90;5.65;;;;;;;6.93;62.83;100313.53;1765102;80;21187;-70
2021/03/13 08:00:49;;;;;;;12.13;6.55;;;;;;;6.99;62.73;100303.12;1730814;81;21143;-67
2021/03/13 08:16:42;;;;;;;14.95;7.92;;;;;;;6.79;62.45;100294.83;1791451;76;22922;-66
2021/03/13 08:19:37;;;;;;;11.18;6.78;;;;;;;6.69;62.82;100306.35;1752627;80;21187;-61
2021/03/13 08:22:21;;;;;;;11.38;6.37;;;;;;;6.70;62.65;100304.09;1883391;76;22561;-59
2021/03/13 08:24:53;;;;;;;11.97;6.65;;;;;;;6.66;62.92;100313.56;1854081;77;21666;-64
2021/03/13 08:27:40;;;;;;;9.70;5.75;;;;;;;6.65;62.84;100313.19;1846488;77;22222;-58
2021/03/13 08:30:22;;;;;;;15.38;7.00;;;;;;;6.65;62.86;100315.80;1843802;77;21115;-58
2021/03/13 08:33:08;;;;;;;13.10;7.47;;;;;;;6.62;63.20;100308.14;1808484;78;21158;-59
2021/03/13 08:35:49;;;;;;;18.95;7.47;;;;;;;6.61;62.95;100309.93;1838923;75;21131;-58
2021/03/13 08:38:20;;;;;;;12.58;6.78;;;;;;;6.61;63.03;100309.10;1843290;76;21457;-60
2021/03/13 08:40:50;;;;;;;12.88;6.87;;;;;;;6.70;63.15;100313.72;1844507;75;21399;-59
2021/03/13 08:43:35;;;;;;;11.53;7.08;;;;;;;6.89;62.68;100309.42;1813392;77;21214;-60
2021/03/13 08:46:47;;;;;;;14.43;8.45;;;;;;;7.01;62.36;100303.84;1869584;74;22746;-60
2021/03/13 08:49:30;;;;;;;12.93;6.40;;;;;;;6.98;62.07;100308.83;1824531;77;21194;-58
2021/03/13 08:52:15;;;;;;;11.70;6.97;;;;;;;6.96;61.96;100315.95;1785188;78;21472;-59
2021/03/13 08:54:45;;;;;;;14.70;7.90;;;;;;;6.83;61.96;100323.75;1748355;79;21199;-59
2021/03/13 08:57:18;;;;;;;12.68;7.35;;;;;;;6.76;62.31;100323.80;1784828;78;21196;-59
2021/03/13 08:59:57;;;;;;;12.98;7.17;;;;;;;6.79;62.30;100325.35;1748635;79;21231;-60
2021/03/13 09:02:29;;;;;;;12.45;7.10;;;;;;;6.80;61.90;100333.10;1785302;80;21074;-62
2021/03/13 09:05:09;;;;;;;13.95;8.10;;;;;;;6.66;61.85;100326.16;1800246;77;21203;-63
2021/03/13 09:07:38;;;;;;;13.48;7.35;;;;;;;6.51;62.05;100334.52;1805374;78;21171;-60
2021/03/13 09:10:07;;;;;;;12.78;7.30;;;;;;;6.34;62.50;100336.06;1804761;78;21132;-61
2021/03/13 09:12:38;;;;;;;14.75;7.75;;;;;;;6.18;62.69;100332.73;1814480;77;21185;-65
2021/03/13 09:15:08;;;;;;;12.50;7.60;;;;;;;6.05;63.23;100330.03;1793090;77;21151;-65
2021/03/13 09:17:36;;;;;;;12.73;7.55;;;;;;;6.04;63.63;100331.81;1781437;79;21487;-64
2021/03/13 09:20:17;;;;;;;14.43;8.15;;;;;;;6.20;63.80;100332.16;1782560;78;21234;-58
2021/03/13 09:22:48;;;;;;;15.78;8.03;;;;;;;6.42;63.20;100329.89;1810537;78;21187;-60
2021/03/13 09:25:22;;;;;;;13.83;7.92;;;;;;;6.57;62.99;100329.83;1803639;78;21213;-61
2021/03/13 09:27:51;;;;;;;15.53;9.00;;;;;;;6.62;62.81;100329.06;1783993;79;21220;-61
2021/03/13 09:30:24;;;;;;;14.70;8.13;;;;;;;6.67;62.90;100330.91;1817204;77;21182;-60
2021/03/13 09:32:53;;;;;;;15.25;8.68;;;;;;;6.74;62.70;100327.43;1788584;79;21248;-61
2021/03/13 09:35:24;;;;;;;13.68;8.78;;;;;;;6.79;62.46;100330.13;1769404;78;21159;-60
2021/03/13 09:37:51;;;;;;;15.28;9.75;;;;;;;6.85;62.30;100327.09;1776839;79;21140;-60
2021/03/13 09:40:26;;;;;;;18.55;10.32;;;;;;;6.91;62.11;100326.33;1806907;78;21158;-60
2021/03/13 09:42:54;;;;;;;15.33;8.43;;;;;;;6.94;62.36;100328.27;1807213;77;21261;-61
2021/03/13 09:45:24;;;;;;;15.72;9.50;;;;;;;7.03;62.40;100323.75;1807871;78;21217;-67
2021/03/13 09:47:58;;;;;;;14.25;9.05;;;;;;;7.13;61.90;100329.22;1808120;77;21551;-67
2021/03/13 09:50:29;;;;;;;15.05;8.55;;;;;;;7.18;61.66;100325.00;1782458;80;21603;-60
2021/03/13 09:53:00;;;;;;;17.75;9.03;;;;;;;7.19;61.73;100328.79;1746187;80;21241;-64
2021/03/13 09:55:29;;;;;;;15.08;8.78;;;;;;;7.24;61.87;100326.70;1778918;78;22071;-60
2021/03/13 09:58:00;;;;;;;16.65;9.23;;;;;;;7.32;61.52;100325.37;1769273;80;21536;-61
2021/03/13 10:00:31;;;;;;;14.73;9.05;;;;;;;7.33;61.42;100321.34;1782061;79;21195;-62
2021/03/13 10:03:00;;;;;;;15.13;9.48;;;;;;;7.36;61.38;100321.59;1767317;78;21118;-61
2021/03/13 10:05:31;;;;;;;16.00;9.43;;;;;;;7.35;61.31;100319.45;1806037;78;21202;-61
2021/03/13 10:08:07;;;;;;;15.35;9.28;;;;;;;7.35;61.18;100326.48;1782199;78;21301;-59
2021/03/13 10:10:36;;;;;;;16.17;8.68;;;;;;;7.41;61.25;100323.42;1787639;78;21236;-60
2021/03/13 10:13:06;;;;;;;14.55;9.48;;;;;;;7.56;60.76;100325.00;1787712;79;21179;-60
2021/03/13 10:15:36;;;;;;;14.35;8.50;;;;;;;7.62;60.75;100328.99;1805619;77;21160;-60
2021/03/13 10:18:14;;;;;;;15.72;9.53;;;;;;;7.67;60.53;100323.45;1801879;78;21627;-60
2021/03/13 10:20:51;;;;;;;16.60;10.13;;;;;;;7.72;60.82;100326.59;1809757;78;21247;-58
2021/03/13 10:23:26;;;;;;;18.82;11.28;;;;;;;7.80;60.00;100329.03;1806482;77;21202;-60
2021/03/13 10:25:59;;;;;;;13.85;8.68;;;;;;;7.80;59.92;100325.55;1782493;78;21563;-61
2021/03/13 10:28:38;;;;;;;17.00;10.38;;;;;;;7.75;60.59;100328.97;1809254;78;21180;-60
2021/03/13 10:31:11;;;;;;;15.45;10.25;;;;;;;7.79;60.35;100330.45;1800580;77;21147;-59
2021/03/13 10:33:46;;;;;;;14.93;9.35;;;;;;;7.80;60.25;100321.63;1814461;78;21180;-62
2021/03/13 10:36:16;;;;;;;14.75;9.85;;;;;;;7.75;59.97;100325.90;1814976;77;21617;-61
2021/03/13 10:38:51;;;;;;;17.75;10.18;;;;;;;7.74;60.41;100322.07;1788093;78;21665;-62
2021/03/13 10:41:23;;;;;;;16.80;9.85;;;;;;;7.79;60.47;100326.04;1810629;77;28313;-59
2021/03/13 10:43:53;;;;;;;16.17;9.48;;;;;;;7.84;60.36;100321.80;1782354;80;21164;-63
2021/03/13 10:46:26;;;;;;;17.75;11.10;;;;;;;7.88;60.47;100322.41;1809109;78;22160;-62
2021/03/13 10:49:00;;;;;;;17.87;9.75;;;;;;;7.92;60.60;100319.97;1818119;77;21155;-63
2021/03/13 10:51:36;;;;;;;18.82;10.48;;;;;;;7.98;60.57;100312.97;1807510;78;21121;-61
2021/03/13 10:54:04;;;;;;;19.45;10.90;;;;;;;8.02;60.18;100313.12;1786223;78;21222;-60
2021/03/13 10:56:43;;;;;;;16.70;10.23;;;;;;;8.06;60.26;100313.75;1811958;78;21216;-60
2021/03/13 10:59:11;;;;;;;17.07;10.15;;;;;;;8.06;59.90;100311.95;1815441;78;21436;-60
2021/03/13 11:01:45;;;;;;;15.53;9.68;;;;;;;8.08;60.14;100309.23;1779191;79;21152;-65
2021/03/13 11:04:14;;;;;;;17.15;9.88;;;;;;;8.12;59.65;100303.67;1790561;79;21120;-59
2021/03/13 11:06:41;;;;;;;19.67;11.43;;;;;;;8.18;59.80;100303.69;1793532;78;21605;-60
2021/03/13 11:09:11;;;;;;;19.50;11.78;;;;;;;8.25;59.51;100299.67;1788574;79;21110;-60
2021/03/13 11:11:39;;;;;;;15.78;9.88;;;;;;;8.30;59.14;100303.29;1819871;78;21185;-60
2021/03/13 11:14:07;;;;;;;19.27;12.10;;;;;;;8.30;59.36;100296.25;1762947;79;21638;-60
2021/03/13 11:16:36;;;;;;;22.55;12.55;;;;;;;8.34;59.35;100296.89;1768243;79;21172;-60
2021/03/13 11:19:04;;;;;;;23.32;12.60;;;;;;;8.41;58.74;100298.60;1756077;79;21223;-60
2021/03/13 11:21:32;;;;;;;19.40;10.90;;;;;;;8.44;58.85;100302.31;1785529;79;21551;-61
2021/03/13 11:23:59;;;;;;;19.75;11.53;;;;;;;8.48;58.58;100289.36;1786257;78;21206;-60
2021/03/13 11:26:27;;;;;;;18.12;11.80;;;;;;;8.56;58.32;100298.83;1786733;79;21148;-61
2021/03/13 11:28:55;;;;;;;15.88;10.78;;;;;;;8.65;58.62;100294.69;1768891;78;21190;-60
2021/03/13 11:31:23;;;;;;;19.60;12.43;;;;;;;8.74;58.46;100287.44;1793695;79;21149;-62
2021/03/13 11:33:52;;;;;;;17.87;11.18;;;;;;;8.84;57.98;100284.97;1805821;78;21220;-61
2021/03/13 11:36:19;;;;;;;16.55;10.60;;;;;;;8.92;58.13;100288.69;1815825;77;21794;-61
2021/03/13 11:38:46;;;;;;;16.67;10.75;;;;;;;9.04;57.89;100284.31;1784913;79;21191;-61
2021/03/13 11:41:14;;;;;;;16.62;10.98;;;;;;;9.15;57.21;100282.20;1768820;78;21218;-61
2021/03/13 11:43:43;;;;;;;15.45;10.25;;;;;;;9.22;57.06;100280.78;1809425;78;21180;-61
2021/03/13 11:46:11;;;;;;;20.15;10.98;;;;;;;9.28;57.13;100280.33;1781871;78;21206;-61
2021/03/13 11:48:41;;;;;;;16.05;9.35;;;;;;;9.34;56.75;100267.68;1784022;80;21438;-60
2021/03/13 11:51:10;;;;;;;18.37;11.53;;;;;;;9.43;56.74;100273.52;1785743;79;21179;-60
2021/03/13 11:53:39;;;;;;;16.20;9.95;;;;;;;9.53;56.55;100270.57;1773110;79;21599;-61
2021/03/13 11:56:07;;;;;;;15.23;9.43;;;;;;;9.64;55.91;100269.72;1792994;78;21147;-60
2021/03/13 11:58:35;;;;;;;16.23;9.68;;;;;;;9.71;54.98;100258.26;1778349;79;21207;-61
2021/03/13 12:01:04;;;;;;;18.30;11.53;;;;;;;9.74;55.10;100256.22;1742734;79;21682;-61
2021/03/13 12:03:32;;;;;;;18.40;10.80;;;;;;;9.80;55.17;100250.95;1756068;80;21172;-60